메인 페이지
METAR-TAF:

METAR-TAF

공항 :

멕시코시티 국제공항

멕시코시티, 멕시코

위도: 19-26N, 경도: 099-06W, 고도: 2238m

현재 날씨관측

예보는 35분 전, 14:46시(UTC)에 발표되었습니다.
4kt
온도 12°C
습도 71%
기압 1031 hPa
시정: 6.4km
고도 2000ft 상공 흐림

METAR: MMMX 111446Z 18004KT 4SM OVC020 12/07 A3044 NOSIG RMK SLP175 52015 917 8/5// HZY BINOVC

시각: 09:21 (15:21 UTC)

예보

예보는 20분 전, 15:01시(UTC)에 발표되었습니다.
예보 대상 시간: 11일 15시부터 12일 18시까지 (UTC)
5kt
시정: 6.4km
고도 2000ft 상공 흐림
연무
전환 중
11일 17시부터 11일 18시까지 (UTC)
북동5kt
고도 2000ft 상공 구름 많음
11일 2000시부터 (UTC)
남동10kt
시정: 9.7km
고도 2500ft 상공 구름 보통
고도 22000ft 상공 구름 보통
연무
전환 중
12일 01시부터 12일 02시까지 (UTC)
북북동5kt
고도 22000ft 상공 구름 보통
12일 1000시부터 (UTC)
북동5kt
시정: 8.0km
고도 2000ft 상공 구름 보통
연무
일시적
12일 11시부터 12일 15시까지 (UTC)
고도 2000ft 상공 구름 많음

TAF: MMMX 111501Z 1115/1218 18005KT 4SM HZ OVC020 TX21/1122Z TN08/1213Z BECMG 1117/1118 05005KT BKN020 FM112000 13010KT 6SM HZ SCT025 SCT220 BECMG 1201/1202 03005KT SCT220 FM121000 05005KT 5SM HZ SCT020 TEMPO 1211/1215 BKN020

4,000개 이상의 공항 관측 자료 및 예보 (METAR 및 TAF 보고).

지도상에서 검색 가능한 기상관측소가 노란 점과 빨간 점으로 표시되어 있습니다.

기상관측소 명을 보려면 표시 위로 마우스를 이동하세요.

날씨 관측과 예보를 보려면 클릭하세요.

지도 변경 : 확대하려면 엑스 표시가 있는 녹색 버튼, 축소하려면 빼기 표시가 있는 녹색 버튼, 다음 페이지의 지도를 보려면 녹색 화살표를 클릭하세요.


METAR-TAF: